Time;durP1;ratioP1;P1;durP2;ratioP2;P2;SDS_P1;SDS_P2;PMS_P1;PMS_P2;Temp;Humidity;BMP_temperature;BMP_pressure;BME280_temperature;BME280_humidity;BME280_pressure;Samples;Min_cycle;Max_cycle;Signal;HPM_P1;HPM_P2
2023/03/24 00:00:43;;;;;;;4.88;2.13;;;;;;;11.23;100.00;99888.28;5070612;28;20024;-49
2023/03/24 00:03:09;;;;;;;5.07;2.80;;;;;;;11.23;100.00;99883.13;5074714;28;20090;-51
2023/03/24 00:05:35;;;;;;;4.30;2.17;;;;;;;11.22;100.00;99872.78;5076344;28;20846;-49
2023/03/24 00:08:03;;;;;;;7.85;2.88;;;;;;;11.20;100.00;99870.22;5075535;28;20065;-52
2023/03/24 00:10:33;;;;;;;6.00;2.55;;;;;;;11.16;100.00;99873.63;5072672;28;20035;-52
2023/03/24 00:12:59;;;;;;;;;;;;;;;11.32;100.00;99869.47;5072731;28;20040;-54
2023/03/24 00:15:25;;;;;;;3.08;1.90;;;;;;;11.28;100.00;99862.56;5071366;28;19956;-53
2023/03/24 00:17:51;;;;;;;5.72;2.53;;;;;;;11.28;100.00;99862.56;5073559;28;20028;-54
2023/03/24 00:20:19;;;;;;;5.22;2.30;;;;;;;11.31;100.00;99865.16;5071019;28;20056;-53
2023/03/24 00:22:49;;;;;;;7.03;3.15;;;;;;;11.32;100.00;99856.59;5071136;28;20054;-55
2023/03/24 00:25:17;;;;;;;6.20;2.47;;;;;;;11.42;100.00;99857.56;5069930;28;20031;-54
2023/03/24 00:27:43;;;;;;;3.65;2.20;;;;;;;11.43;100.00;99865.28;5072810;28;20126;-54
2023/03/24 00:30:10;;;;;;;5.32;2.20;;;;;;;11.50;100.00;99858.47;5080432;28;20028;-54
2023/03/24 00:32:37;;;;;;;6.65;2.85;;;;;;;11.51;100.00;99848.19;5068834;28;20025;-54
2023/03/24 00:35:05;;;;;;;5.95;2.45;;;;;;;11.53;100.00;99838.78;5058922;28;20036;-54
2023/03/24 00:37:30;;;;;;;7.32;2.20;;;;;;;11.54;100.00;99837.06;5077558;28;20032;-53
2023/03/24 00:39:56;;;;;;;4.20;2.40;;;;;;;11.61;100.00;99845.69;5075721;28;20034;-55
2023/03/24 00:42:23;;;;;;;6.28;2.40;;;;;;;11.63;100.00;99839.69;5076966;28;20033;-55
2023/03/24 00:44:49;;;;;;;3.60;2.08;;;;;;;11.65;100.00;99827.72;5076513;28;20056;-53
2023/03/24 00:47:16;;;;;;;3.72;2.10;;;;;;;11.66;100.00;99829.44;5073914;28;20031;-54
2023/03/24 00:49:43;;;;;;;4.10;2.00;;;;;;;11.74;100.00;99829.47;5072751;28;20028;-53
2023/03/24 00:52:16;;;;;;;4.53;2.25;;;;;;;11.77;100.00;99814.91;5076819;28;20020;-55
2023/03/24 00:54:44;;;;;;;4.15;2.10;;;;;;;11.80;100.00;99820.06;5075932;28;20024;-52
2023/03/24 00:57:20;;;;;;;3.78;1.90;;;;;;;11.80;100.00;99817.50;5081966;28;20115;-53
2023/03/24 00:59:47;;;;;;;4.45;2.20;;;;;;;11.85;100.00;99798.66;5073413;28;20033;-54
2023/03/24 01:02:24;;;;;;;3.65;2.08;;;;;;;11.92;100.00;99805.56;5081624;28;20040;-50
2023/03/24 01:04:53;;;;;;;5.65;2.17;;;;;;;12.00;100.00;99801.31;5072160;28;20032;-54
2023/03/24 01:07:23;;;;;;;3.67;2.10;;;;;;;12.01;100.00;99814.22;5072349;28;20028;-54
2023/03/24 01:09:58;;;;;;;3.30;1.90;;;;;;;12.02;100.00;99792.75;5070168;28;20025;-54
2023/03/24 01:12:26;;;;;;;5.43;1.95;;;;;;;12.02;100.00;99795.34;5074474;28;20032;-53
2023/03/24 01:14:52;;;;;;;2.90;1.98;;;;;;;12.04;100.00;99787.59;5074046;28;20032;-52
2023/03/24 01:17:18;;;;;;;4.10;2.10;;;;;;;12.05;100.00;99794.47;5074827;28;20046;-52
2023/03/24 01:19:44;;;;;;;3.78;2.00;;;;;;;12.04;100.00;99783.31;5083534;28;20143;-52
2023/03/24 01:22:11;;;;;;;4.97;2.05;;;;;;;12.05;100.00;99797.06;5074056;28;20045;-53
2023/03/24 01:24:37;;;;;;;4.20;1.88;;;;;;;11.98;100.00;99783.28;5078745;28;20020;-53
2023/03/24 01:27:02;;;;;;;4.70;1.90;;;;;;;11.93;100.00;99778.97;5054495;28;20041;-53
2023/03/24 01:29:27;;;;;;;4.93;2.10;;;;;;;11.85;100.00;99778.06;5076439;28;20104;-52
2023/03/24 01:31:53;;;;;;;3.67;2.00;;;;;;;11.84;100.00;99776.34;5054466;28;20038;-53
2023/03/24 01:34:18;;;;;;;4.60;2.00;;;;;;;11.75;100.00;99779.69;5078618;28;20032;-51
2023/03/24 01:36:44;;;;;;;3.15;2.13;;;;;;;11.80;100.00;99783.16;5077124;28;20028;-50
2023/03/24 01:39:09;;;;;;;3.30;2.10;;;;;;;11.73;100.00;99766.81;5082321;28;20060;-52
2023/03/24 01:41:38;;;;;;;4.18;2.45;;;;;;;11.70;100.00;99781.34;5084808;28;20040;-53
2023/03/24 01:44:35;;;;;;;4.95;2.03;;;;;;;11.66;100.00;99753.88;5074872;28;20064;-53
2023/03/24 01:47:05;;;;;;;5.28;2.20;;;;;;;11.64;100.00;99771.03;5076035;28;20037;-52
2023/03/24 01:49:39;;;;;;;4.03;2.15;;;;;;;11.65;100.00;99768.47;5074807;28;20020;-51
2023/03/24 01:52:10;;;;;;;4.30;2.22;;;;;;;11.64;100.00;99763.28;5077074;28;20043;-52
2023/03/24 01:54:40;;;;;;;5.07;2.30;;;;;;;11.65;100.00;99762.44;5077724;28;20035;-53
2023/03/24 01:57:13;;;;;;;4.07;1.85;;;;;;;11.63;100.00;99756.44;5076533;28;20050;-50
2023/03/24 01:59:41;;;;;;;4.65;2.17;;;;;;;11.59;100.00;99752.09;5074887;28;20031;-53
2023/03/24 02:02:08;;;;;;;4.78;2.30;;;;;;;11.61;100.00;99758.16;5081420;28;20035;-53
2023/03/24 02:04:38;;;;;;;4.65;2.38;;;;;;;11.61;100.00;99745.28;5080543;28;20052;-51
2023/03/24 02:07:29;;;;;;;4.55;2.10;;;;;;;11.58;100.00;99740.94;5077998;28;20096;-49
2023/03/24 02:09:55;;;;;;;4.78;2.38;;;;;;;11.55;100.00;99751.25;5058382;28;20411;-50
2023/03/24 02:12:20;;;;;;;4.45;2.25;;;;;;;11.56;100.00;99755.53;5076656;28;20032;-54
2023/03/24 02:14:46;;;;;;;6.20;2.50;;;;;;;11.53;100.00;99747.81;5073450;28;20131;-49
2023/03/24 02:17:25;;;;;;;3.00;2.10;;;;;;;11.54;100.00;99750.38;5071998;28;20378;-50
2023/03/24 02:20:11;;;;;;;4.95;1.90;;;;;;;11.51;100.00;99746.91;5053907;28;20043;-49
2023/03/24 02:22:51;;;;;;;5.30;2.70;;;;;;;11.45;100.00;99750.31;5076190;28;20064;-47
2023/03/24 02:25:54;;;;;;;5.70;2.60;;;;;;;11.44;100.00;99753.75;5074200;28;20048;-46
2023/03/24 02:28:28;;;;;;;5.43;3.10;;;;;;;11.46;100.00;99748.59;5077073;28;20028;-47
2023/03/24 02:31:00;;;;;;;5.40;3.03;;;;;;;11.36;100.00;99744.25;5073269;28;20051;-46
2023/03/24 02:34:03;;;;;;;7.25;2.80;;;;;;;11.35;100.00;99750.25;5071731;28;20078;-46
2023/03/24 02:36:28;;;;;;;4.53;3.00;;;;;;;11.35;100.00;99747.69;5077362;28;20036;-47
2023/03/24 02:39:08;;;;;;;7.43;2.90;;;;;;;11.38;100.00;99748.56;5075516;28;20103;-47
2023/03/24 02:41:42;;;;;;;;;;;;;;;11.52;100.00;99753.78;5076163;28;20539;-46
2023/03/24 02:44:25;;;;;;;4.32;2.78;;;;;;;11.42;100.00;99741.72;5074973;28;19923;-50
2023/03/24 02:46:59;;;;;;;5.15;2.80;;;;;;;11.39;100.00;99733.97;5071221;28;20070;-46
2023/03/24 02:49:36;;;;;;;4.50;2.63;;;;;;;11.41;100.00;99752.88;5071315;28;20055;-48
2023/03/24 02:52:16;;;;;;;3.80;2.22;;;;;;;11.40;100.00;99757.13;5068953;28;20035;-46
2023/03/24 02:54:53;;;;;;;4.57;2.13;;;;;;;11.44;100.00;99768.31;5079473;28;20068;-45
2023/03/24 02:57:29;;;;;;;5.30;2.90;;;;;;;11.49;100.00;99761.50;5074984;28;20024;-49
2023/03/24 03:00:21;;;;;;;5.70;2.90;;;;;;;11.47;100.00;99768.38;5076514;28;20032;-45
2023/03/24 03:02:54;;;;;;;4.53;2.95;;;;;;;11.48;100.00;99782.94;5067226;28;20302;-44
2023/03/24 03:05:30;;;;;;;3.88;2.40;;;;;;;11.52;100.00;99793.25;5077987;28;20028;-47
2023/03/24 03:07:59;;;;;;;5.43;2.78;;;;;;;11.50;100.00;99809.56;5073595;28;20073;-47
2023/03/24 03:10:46;;;;;;;4.88;2.50;;;;;;;11.46;100.00;99818.94;5075583;28;20035;-53
2023/03/24 03:13:19;;;;;;;3.63;1.90;;;;;;;11.39;100.00;99824.06;5072553;28;20051;-53
2023/03/24 03:15:49;;;;;;;2.78;1.08;;;;;;;11.31;100.00;99838.56;5056889;28;20419;-51
2023/03/24 03:18:28;;;;;;;2.60;0.75;;;;;;;11.21;100.00;99837.63;5078065;28;20024;-49
2023/03/24 03:20:59;;;;;;;1.35;0.80;;;;;;;11.07;97.84;99846.94;5074151;28;20075;-51
2023/03/24 03:23:35;;;;;;;1.85;0.60;;;;;;;10.96;100.00;99850.25;5052687;28;20082;-53
2023/03/24 03:26:03;;;;;;;2.42;0.80;;;;;;;10.85;98.81;99856.97;5081560;28;20032;-48
2023/03/24 03:28:35;;;;;;;4.40;1.63;;;;;;;10.73;97.74;99856.84;5074116;28;20081;-52
2023/03/24 03:31:07;;;;;;;1.77;0.77;;;;;;;10.57;99.45;99863.53;5054796;28;20024;-52
2023/03/24 03:33:39;;;;;;;5.10;0.90;;;;;;;10.50;99.66;99873.72;5069713;28;20403;-53
2023/03/24 03:36:30;;;;;;;3.85;0.70;;;;;;;10.36;100.00;99886.38;5075381;28;20276;-53
2023/03/24 03:39:07;;;;;;;4.32;1.13;;;;;;;10.24;100.00;99902.50;5058448;28;20441;-53
2023/03/24 03:41:33;;;;;;;4.68;1.33;;;;;;;10.15;100.00;99908.34;5076276;28;20133;-49
2023/03/24 03:43:59;;;;;;;7.32;1.23;;;;;;;10.10;100.00;99915.13;5071289;28;20087;-52
2023/03/24 03:46:25;;;;;;;4.93;1.20;;;;;;;10.03;100.00;99917.59;5074411;28;20031;-53
2023/03/24 03:48:52;;;;;;;7.97;1.13;;;;;;;9.94;100.00;99921.72;5070757;28;20032;-52
2023/03/24 03:51:17;;;;;;;5.45;1.40;;;;;;;9.91;100.00;99926.81;5076061;28;20478;-54
2023/03/24 03:54:11;;;;;;;7.95;1.50;;;;;;;9.88;100.00;99926.75;5078550;28;20028;-53
2023/03/24 03:56:38;;;;;;;6.00;1.70;;;;;;;9.83;100.00;99918.16;5072778;28;20194;-52
2023/03/24 03:59:05;;;;;;;7.88;1.55;;;;;;;9.82;100.00;99930.94;5073731;28;20028;-53
2023/03/24 04:01:35;;;;;;;6.22;1.95;;;;;;;9.78;100.00;99942.00;5070984;28;20501;-52
2023/03/24 04:04:32;;;;;;;7.82;1.65;;;;;;;9.73;100.00;99941.94;5078963;28;20024;-53
2023/03/24 04:07:34;;;;;;;5.32;1.50;;;;;;;9.74;100.00;99945.34;5069014;28;20475;-53
2023/03/24 04:10:32;;;;;;;4.18;2.08;;;;;;;9.71;100.00;99948.75;5069524;28;20455;-53
2023/03/24 04:13:13;;;;;;;6.38;2.58;;;;;;;9.70;100.00;99958.97;5064234;28;20059;-53
2023/03/24 04:15:47;;;;;;;9.98;3.00;;;;;;;9.72;100.00;99970.16;5074586;28;20398;-52
2023/03/24 04:18:12;;;;;;;8.35;3.30;;;;;;;9.72;100.00;99972.72;5074211;28;20442;-49
2023/03/24 04:20:46;;;;;;;8.02;3.72;;;;;;;9.81;100.00;99983.13;5076946;28;20059;-48
2023/03/24 04:23:38;;;;;;;12.20;3.55;;;;;;;9.89;99.49;99989.28;5074377;28;20036;-46
2023/03/24 04:26:13;;;;;;;6.38;3.08;;;;;;;9.80;100.00;99995.09;5070572;28;20028;-46
2023/03/24 04:28:56;;;;;;;7.13;2.85;;;;;;;9.81;99.29;100001.97;5073007;28;20059;-47
2023/03/24 04:31:32;;;;;;;12.48;3.72;;;;;;;9.78;99.59;99994.22;5077186;28;20107;-48
2023/03/24 04:34:04;;;;;;;9.57;3.15;;;;;;;9.74;99.27;100001.84;5070600;28;20024;-48
2023/03/24 04:36:53;;;;;;;9.63;2.60;;;;;;;9.80;99.41;100002.81;5070329;28;20040;-50
2023/03/24 04:39:27;;;;;;;;;;;;;;;9.76;99.47;100013.84;5080694;28;20040;-46
2023/03/24 04:41:56;;;;;;;11.27;3.28;;;;;;;9.70;97.71;100015.44;5074983;28;19939;-45
2023/03/24 04:44:23;;;;;;;7.28;2.47;;;;;;;9.68;97.76;100011.16;5074371;28;20058;-47
2023/03/24 04:46:55;;;;;;;12.10;3.15;;;;;;;9.66;98.03;100012.84;5072360;28;20158;-46
2023/03/24 04:49:24;;;;;;;10.85;3.67;;;;;;;9.57;98.80;100022.91;5073754;28;20115;-46
2023/03/24 04:51:50;;;;;;;8.85;2.85;;;;;;;9.52;99.14;100026.22;5076210;28;20043;-48
2023/03/24 04:54:17;;;;;;;11.25;2.80;;;;;;;9.52;98.94;100018.53;5079379;28;20533;-48
2023/03/24 04:56:47;;;;;;;9.73;2.67;;;;;;;9.45;98.99;100019.25;5074715;28;20133;-47
2023/03/24 04:59:14;;;;;;;9.55;2.92;;;;;;;9.39;99.28;100020.00;5073412;28;20032;-47
2023/03/24 05:01:40;;;;;;;15.73;2.80;;;;;;;9.37;98.82;100032.81;5072634;28;20024;-47
2023/03/24 05:04:06;;;;;;;11.10;2.55;;;;;;;9.37;98.99;100026.81;5055300;28;20446;-50
2023/03/24 05:06:32;;;;;;;11.73;2.72;;;;;;;9.33;99.21;100041.28;5077419;28;20035;-46
2023/03/24 05:08:58;;;;;;;10.63;2.10;;;;;;;9.29;99.27;100038.63;5077466;28;20032;-44
2023/03/24 05:11:26;;;;;;;11.50;2.47;;;;;;;9.19;100.00;100037.56;5082128;28;20031;-53
2023/03/24 05:13:52;;;;;;;6.22;1.80;;;;;;;9.16;100.00;100036.63;5073056;28;20063;-54
2023/03/24 05:16:17;;;;;;;9.40;1.80;;;;;;;9.09;100.00;100040.78;5075577;28;20467;-53
2023/03/24 05:18:43;;;;;;;13.93;2.17;;;;;;;9.05;100.00;100049.25;5079485;28;20081;-54
2023/03/24 05:21:09;;;;;;;13.65;2.38;;;;;;;9.00;100.00;100054.28;5083397;28;20038;-54
2023/03/24 05:23:34;;;;;;;12.30;2.30;;;;;;;9.04;100.00;100063.78;5079751;28;20071;-52
2023/03/24 05:26:00;;;;;;;11.65;2.10;;;;;;;9.02;100.00;100062.00;5060768;28;20028;-52
2023/03/24 05:28:25;;;;;;;10.38;2.28;;;;;;;9.04;100.00;100066.34;5078464;28;20029;-54
2023/03/24 05:30:51;;;;;;;11.80;2.35;;;;;;;9.05;100.00;100068.06;5073958;28;20036;-53
2023/03/24 05:33:16;;;;;;;17.13;3.20;;;;;;;9.04;100.00;100074.03;5079361;28;20034;-53
2023/03/24 05:35:42;;;;;;;11.98;2.30;;;;;;;9.05;100.00;100072.34;5073146;28;20024;-53
2023/03/24 05:38:07;;;;;;;17.13;2.83;;;;;;;9.02;100.00;100077.38;5077108;28;21457;-53
2023/03/24 05:40:33;;;;;;;15.50;3.28;;;;;;;9.08;100.00;100083.50;5073362;28;20023;-52
2023/03/24 05:42:58;;;;;;;14.80;3.10;;;;;;;9.04;100.00;100078.28;5054727;28;20056;-54
2023/03/24 05:45:24;;;;;;;14.55;3.35;;;;;;;9.04;100.00;100080.84;5075168;28;20052;-53
2023/03/24 05:47:50;;;;;;;14.18;3.17;;;;;;;9.04;100.00;100079.19;5071884;28;20045;-53
2023/03/24 05:50:16;;;;;;;12.43;3.35;;;;;;;9.04;100.00;100089.44;5081734;28;20112;-53
2023/03/24 05:52:41;;;;;;;12.82;2.92;;;;;;;9.09;100.00;100095.50;5076685;28;20033;-52
2023/03/24 05:55:08;;;;;;;14.20;3.25;;;;;;;9.05;100.00;100087.72;5078304;28;20471;-54
2023/03/24 05:57:35;;;;;;;14.65;3.17;;;;;;;9.06;100.00;100086.88;5074018;28;20441;-51
2023/03/24 06:00:05;;;;;;;11.27;3.08;;;;;;;9.07;100.00;100092.03;5074437;28;20112;-53
2023/03/24 06:02:31;;;;;;;15.13;3.10;;;;;;;9.12;99.96;100093.00;5063214;28;20028;-54
2023/03/24 06:04:56;;;;;;;9.25;2.88;;;;;;;9.15;100.00;100097.34;5073040;28;20390;-55
2023/03/24 06:07:25;;;;;;;10.70;2.38;;;;;;;9.25;100.00;100104.41;5078360;28;20431;-54
2023/03/24 06:09:51;;;;;;;13.63;3.08;;;;;;;9.41;98.81;100100.47;5072977;28;20032;-53
2023/03/24 06:12:17;;;;;;;12.35;3.00;;;;;;;9.59;97.74;100097.41;5072179;28;20021;-54
2023/03/24 06:14:44;;;;;;;10.80;2.22;;;;;;;9.76;96.88;100098.56;5071618;28;20033;-49
2023/03/24 06:17:13;;;;;;;10.95;2.50;;;;;;;9.90;95.68;100104.00;5054466;28;20036;-53
2023/03/24 06:19:47;;;;;;;;;;;;;;;10.09;95.75;100098.34;5061021;28;20059;-51
2023/03/24 06:22:12;;;;;;;13.68;2.50;;;;;;;10.21;93.17;100107.97;5075685;28;19963;-44
2023/03/24 06:24:38;;;;;;;12.82;2.78;;;;;;;10.35;93.02;100100.53;5077296;28;20105;-44
2023/03/24 06:27:07;;;;;;;15.55;2.53;;;;;;;10.41;91.95;100111.75;5073924;28;20036;-44
2023/03/24 06:29:33;;;;;;;;;;;;;;;10.61;94.38;100111.22;5075012;28;20060;-52
2023/03/24 06:31:58;;;;;;;10.60;2.15;;;;;;;10.51;91.04;100112.78;5072377;28;19957;-49
2023/03/24 06:34:28;;;;;;;16.58;2.88;;;;;;;10.41;90.95;100121.19;5071370;28;20052;-49
2023/03/24 06:36:54;;;;;;;11.02;2.20;;;;;;;10.19;91.19;100122.47;5073472;28;20486;-49
2023/03/24 06:39:20;;;;;;;13.77;2.05;;;;;;;10.03;92.10;100126.47;5072242;28;20031;-51
2023/03/24 06:41:46;;;;;;;14.85;2.45;;;;;;;9.93;92.95;100132.28;5075787;28;20031;-49
2023/03/24 06:44:11;;;;;;;11.30;2.40;;;;;;;10.00;92.38;100126.41;5070410;28;20028;-50
2023/03/24 06:46:37;;;;;;;13.68;2.28;;;;;;;10.19;91.90;100135.31;5079111;28;20127;-52
2023/03/24 06:49:03;;;;;;;10.85;2.15;;;;;;;10.40;91.60;100137.44;5079044;28;20410;-50
2023/03/24 06:51:28;;;;;;;13.85;2.22;;;;;;;10.51;89.84;100146.22;5075659;28;20032;-51
2023/03/24 06:53:54;;;;;;;12.15;2.08;;;;;;;10.61;89.47;100140.34;5076380;28;20386;-51
2023/03/24 06:56:20;;;;;;;16.52;2.50;;;;;;;10.74;88.58;100134.59;5054120;28;20040;-51
2023/03/24 06:58:46;;;;;;;14.75;2.53;;;;;;;10.79;87.59;100139.78;5075150;28;20090;-52
2023/03/24 07:01:13;;;;;;;12.23;2.25;;;;;;;10.79;87.82;100144.06;5072561;28;20028;-50
2023/03/24 07:03:40;;;;;;;13.93;2.65;;;;;;;10.79;88.37;100146.63;5076265;28;20036;-48
2023/03/24 07:06:06;;;;;;;13.43;2.72;;;;;;;10.83;88.21;100141.56;5072808;28;20026;-51
2023/03/24 07:08:32;;;;;;;14.02;2.33;;;;;;;10.96;87.54;100150.34;5073262;28;20028;-52
2023/03/24 07:10:58;;;;;;;13.13;2.42;;;;;;;10.97;86.61;100157.22;5059400;28;20032;-52
2023/03/24 07:13:24;;;;;;;14.88;2.38;;;;;;;10.98;88.32;100153.78;5073834;28;20047;-50
2023/03/24 07:15:50;;;;;;;14.60;2.55;;;;;;;11.07;87.10;100159.09;5077467;28;20051;-52
2023/03/24 07:18:15;;;;;;;12.18;2.50;;;;;;;11.08;87.31;100152.22;5070739;28;20028;-51
2023/03/24 07:20:41;;;;;;;14.70;2.72;;;;;;;11.08;88.29;100165.09;5071235;28;20539;-52
2023/03/24 07:23:06;;;;;;;13.93;2.40;;;;;;;11.24;87.02;100167.06;5072800;28;20028;-50
2023/03/24 07:25:32;;;;;;;12.70;2.60;;;;;;;11.26;86.63;100168.78;5075806;28;20028;-50
2023/03/24 07:27:57;;;;;;;10.68;1.98;;;;;;;11.24;86.93;100170.50;5073952;28;20032;-52
2023/03/24 07:30:24;;;;;;;14.73;2.78;;;;;;;11.28;87.59;100180.00;5074509;28;20096;-50
2023/03/24 07:32:50;;;;;;;13.50;2.03;;;;;;;11.34;85.48;100193.78;5071654;28;20099;-49
2023/03/24 07:35:16;;;;;;;12.30;2.10;;;;;;;11.34;86.21;100179.19;5070334;28;20493;-52
2023/03/24 07:37:42;;;;;;;15.85;2.80;;;;;;;11.36;86.90;100181.81;5073368;28;20089;-52
2023/03/24 07:40:12;;;;;;;12.35;2.08;;;;;;;11.39;86.06;100189.56;5076633;28;20024;-52
2023/03/24 07:42:41;;;;;;;13.73;2.67;;;;;;;11.44;86.41;100180.19;5075481;28;20036;-53
2023/03/24 07:45:11;;;;;;;15.60;2.58;;;;;;;11.55;85.58;100187.22;5076686;28;20036;-52
2023/03/24 07:47:38;;;;;;;10.82;2.20;;;;;;;11.62;84.37;100188.16;5058973;28;20123;-49
2023/03/24 07:50:10;;;;;;;12.60;2.40;;;;;;;11.68;85.12;100195.97;5077199;28;20065;-50
2023/03/24 07:52:40;;;;;;;12.75;2.33;;;;;;;11.76;84.80;100203.78;5072966;28;20029;-51
2023/03/24 07:55:09;;;;;;;16.23;2.40;;;;;;;11.73;83.43;100188.31;5078097;28;20013;-50
2023/03/24 07:57:36;;;;;;;12.05;2.58;;;;;;;11.84;83.51;100201.38;5077463;28;20024;-49
2023/03/24 08:00:16;;;;;;;14.23;2.40;;;;;;;11.85;82.96;100203.09;5075152;28;20123;-52
2023/03/24 08:02:44;;;;;;;19.33;3.33;;;;;;;11.90;82.92;100211.75;5084862;28;20105;-52
2023/03/24 08:05:12;;;;;;;16.35;2.53;;;;;;;11.98;83.03;100194.66;5081303;28;20016;-53
2023/03/24 08:07:38;;;;;;;12.50;2.33;;;;;;;12.12;82.27;100211.13;5073996;28;20046;-54
2023/03/24 08:10:05;;;;;;;14.63;2.08;;;;;;;12.05;81.60;100210.19;5072186;28;20036;-53
2023/03/24 08:12:30;;;;;;;11.48;2.40;;;;;;;11.96;81.87;100212.69;5071837;28;20029;-53
2023/03/24 08:14:56;;;;;;;13.13;2.42;;;;;;;11.79;81.88;100215.00;5069481;28;20035;-53
2023/03/24 08:17:21;;;;;;;18.45;2.90;;;;;;;11.69;84.05;100218.28;5073651;28;20039;-45
2023/03/24 08:19:47;;;;;;;14.63;2.83;;;;;;;11.63;83.51;100218.22;5070721;28;20035;-44
2023/03/24 08:22:12;;;;;;;16.30;2.88;;;;;;;11.55;84.38;100215.53;5071258;28;20070;-46
2023/03/24 08:24:38;;;;;;;12.73;2.88;;;;;;;11.52;83.81;100230.06;5071357;28;20056;-44
2023/03/24 08:27:06;;;;;;;11.23;2.55;;;;;;;11.50;85.55;100226.63;5073711;28;20111;-45
2023/03/24 08:29:33;;;;;;;19.60;3.47;;;;;;;11.53;84.85;100227.53;5053052;28;20032;-46
2023/03/24 08:31:59;;;;;;;19.88;3.08;;;;;;;11.60;85.86;100225.91;5072282;28;20417;-44
2023/03/24 08:34:25;;;;;;;16.90;2.55;;;;;;;11.66;85.28;100227.72;5073188;28;20043;-45
2023/03/24 08:36:51;;;;;;;12.82;2.90;;;;;;;11.72;83.93;100236.38;5070849;28;20033;-47
2023/03/24 08:39:16;;;;;;;13.35;2.63;;;;;;;11.80;84.12;100237.34;5073075;28;20495;-45
2023/03/24 08:41:42;;;;;;;13.77;2.45;;;;;;;11.90;84.05;100243.50;5070737;28;20560;-46
2023/03/24 08:44:09;;;;;;;14.80;2.47;;;;;;;11.90;84.13;100238.38;5071768;28;20035;-46
2023/03/24 08:46:34;;;;;;;17.50;3.05;;;;;;;11.87;81.44;100250.34;5074060;28;20176;-45
2023/03/24 08:48:59;;;;;;;16.67;2.95;;;;;;;11.77;81.69;100244.19;5075935;28;20032;-51
2023/03/24 08:51:26;;;;;;;14.27;2.28;;;;;;;11.75;81.85;100254.44;5073230;28;20033;-46
2023/03/24 08:53:52;;;;;;;13.73;2.35;;;;;;;11.74;82.52;100262.16;5076626;28;20339;-46
2023/03/24 08:56:18;;;;;;;10.85;2.72;;;;;;;11.68;82.06;100256.91;5072881;28;20024;-47
2023/03/24 08:58:47;;;;;;;13.48;2.88;;;;;;;11.66;82.07;100258.63;5074649;28;20091;-47
2023/03/24 09:01:13;;;;;;;13.07;2.60;;;;;;;11.63;83.12;100256.84;5072641;28;20028;-45
2023/03/24 09:03:39;;;;;;;13.70;2.80;;;;;;;11.59;85.26;100262.81;5069734;28;20058;-45
2023/03/24 09:06:05;;;;;;;11.57;2.63;;;;;;;11.60;86.78;100261.97;5052585;28;20545;-46
2023/03/24 09:08:30;;;;;;;18.05;3.00;;;;;;;11.67;86.25;100262.91;5071832;28;20495;-44
2023/03/24 09:10:56;;;;;;;11.18;2.35;;;;;;;11.74;83.92;100257.00;5071229;28;20055;-45
2023/03/24 09:13:22;;;;;;;12.45;2.53;;;;;;;11.85;83.53;100267.50;5071251;28;20067;-49
2023/03/24 09:15:53;;;;;;;13.10;2.85;;;;;;;11.91;82.25;100262.41;5072496;28;20024;-47
2023/03/24 09:18:20;;;;;;;13.63;2.47;;;;;;;12.00;81.99;100267.66;5074832;28;20020;-46
2023/03/24 09:20:46;;;;;;;17.13;2.80;;;;;;;12.10;82.00;100269.53;5078634;28;20048;-46
2023/03/24 09:23:12;;;;;;;18.08;2.60;;;;;;;12.25;79.92;100263.69;5074650;28;20033;-46
2023/03/24 09:25:38;;;;;;;15.18;2.42;;;;;;;12.33;80.00;100272.38;5071336;28;20031;-45
2023/03/24 09:28:05;;;;;;;15.35;4.47;;;;;;;12.47;78.82;100272.53;5069628;28;20036;-46
2023/03/24 09:30:30;;;;;;;14.20;2.47;;;;;;;12.46;78.75;100270.81;5068555;28;20032;-49
2023/03/24 09:32:57;;;;;;;12.70;2.58;;;;;;;12.46;78.08;100275.97;5075358;28;20033;-47
2023/03/24 09:35:24;;;;;;;13.48;2.60;;;;;;;12.38;78.08;100280.16;5079767;28;20061;-45
2023/03/24 09:37:50;;;;;;;14.70;2.50;;;;;;;12.27;79.87;100286.06;5074326;28;20040;-45
2023/03/24 09:40:26;;;;;;;8.48;2.53;;;;;;;12.19;81.56;100287.66;5076251;28;20032;-46
2023/03/24 09:43:06;;;;;;;11.30;2.65;;;;;;;12.11;84.06;100286.72;5081276;28;20028;-44
2023/03/24 09:45:39;;;;;;;15.95;2.80;;;;;;;12.02;84.37;100289.19;5073159;28;20159;-45
2023/03/24 09:48:12;;;;;;;14.85;2.80;;;;;;;12.05;84.12;100297.81;5054575;28;20024;-46
2023/03/24 09:51:06;;;;;;;17.23;3.60;;;;;;;12.14;83.68;100304.81;5076437;28;20115;-49
2023/03/24 09:53:48;;;;;;;11.90;2.90;;;;;;;12.19;83.97;100286.81;5048680;28;20457;-44
2023/03/24 09:56:16;;;;;;;10.63;3.17;;;;;;;12.26;83.25;100288.63;5075691;28;20534;-44
2023/03/24 09:58:48;;;;;;;10.68;3.40;;;;;;;12.25;83.45;100289.44;5073739;28;20238;-46
2023/03/24 10:01:16;;;;;;;10.02;2.63;;;;;;;12.38;83.61;100301.66;5072942;28;20475;-46
2023/03/24 10:03:43;;;;;;;15.48;2.75;;;;;;;12.55;82.54;100297.53;5057462;28;20173;-47
2023/03/24 10:06:25;;;;;;;13.55;2.80;;;;;;;12.76;81.46;100296.06;5071874;28;20494;-46
2023/03/24 10:09:28;;;;;;;12.73;2.55;;;;;;;13.05;81.27;100317.00;5075529;28;20036;-45
2023/03/24 10:12:18;;;;;;;10.45;2.90;;;;;;;13.14;79.26;100309.31;5077554;28;20103;-46
2023/03/24 10:15:05;;;;;;;15.93;2.80;;;;;;;13.20;78.56;100306.78;5063584;28;20054;-45
2023/03/24 10:17:53;;;;;;;11.95;2.67;;;;;;;13.01;76.88;100317.78;5077827;28;20034;-44
2023/03/24 10:20:31;;;;;;;11.45;2.80;;;;;;;12.88;78.58;100312.53;5081404;28;20157;-48
2023/03/24 10:23:18;;;;;;;11.27;2.42;;;;;;;12.91;77.40;100313.38;5081638;28;20471;-44
2023/03/24 10:26:10;;;;;;;13.52;2.60;;;;;;;12.94;77.43;100316.88;5077335;28;20040;-44
2023/03/24 10:28:50;;;;;;;11.10;2.72;;;;;;;12.97;77.70;100313.44;5068513;28;20036;-45
2023/03/24 10:31:18;;;;;;;14.15;2.72;;;;;;;12.98;78.38;100305.72;5059745;28;20020;-46
2023/03/24 10:33:45;;;;;;;11.70;2.28;;;;;;;13.03;76.39;100305.75;5074741;28;20020;-46
2023/03/24 10:36:13;;;;;;;10.75;2.30;;;;;;;13.10;76.69;100307.53;5076970;28;20060;-45
2023/03/24 10:38:39;;;;;;;8.20;2.05;;;;;;;13.39;75.02;100310.41;5072502;28;20062;-46
2023/03/24 10:41:05;;;;;;;12.88;2.72;;;;;;;13.56;73.38;100300.19;5056033;28;20066;-48
2023/03/24 10:43:31;;;;;;;10.93;2.20;;;;;;;13.68;73.61;100302.88;5055191;28;20036;-47
2023/03/24 10:45:58;;;;;;;8.68;2.00;;;;;;;13.65;70.00;100308.00;5072547;28;20114;-47
2023/03/24 10:48:38;;;;;;;13.20;2.50;;;;;;;13.78;70.87;100304.66;5073419;28;20119;-47
2023/03/24 10:51:04;;;;;;;12.75;2.08;;;;;;;13.89;69.77;100294.38;5075012;28;20020;-46
2023/03/24 10:53:32;;;;;;;10.77;2.03;;;;;;;14.10;69.26;100285.88;5069723;28;20077;-46
2023/03/24 10:55:58;;;;;;;10.00;2.05;;;;;;;14.18;68.09;100289.34;5072272;28;20050;-49
2023/03/24 10:58:41;;;;;;;12.10;2.38;;;;;;;14.14;69.12;100295.38;5075608;28;20020;-47
2023/03/24 11:01:31;;;;;;;10.95;2.13;;;;;;;13.94;67.20;100296.13;5073939;28;20067;-48
2023/03/24 11:04:03;;;;;;;10.80;2.45;;;;;;;13.49;68.66;100290.69;5079091;28;20025;-45
2023/03/24 11:06:30;;;;;;;6.45;1.60;;;;;;;13.66;68.25;100296.84;5058627;28;20422;-47
2023/03/24 11:09:19;;;;;;;8.25;1.60;;;;;;;13.82;68.37;100292.59;5072918;28;20024;-46
2023/03/24 11:11:45;;;;;;;9.57;1.67;;;;;;;14.06;66.12;100287.56;5073545;28;20046;-49
2023/03/24 11:14:25;;;;;;;13.57;1.95;;;;;;;14.26;67.01;100295.44;5059100;28;20021;-48
2023/03/24 11:17:00;;;;;;;9.07;1.95;;;;;;;14.27;65.32;100302.31;5077713;28;20031;-46
2023/03/24 11:19:25;;;;;;;10.75;2.33;;;;;;;14.27;64.60;100294.56;5078731;28;20149;-45
2023/03/24 11:21:58;;;;;;;7.18;1.88;;;;;;;14.10;65.54;100297.06;5076065;28;20489;-46
2023/03/24 11:24:26;;;;;;;9.80;2.00;;;;;;;13.85;66.25;100305.56;5076938;28;20028;-49
2023/03/24 11:27:02;;;;;;;12.07;1.98;;;;;;;13.61;66.95;100299.38;5082422;28;20028;-44
2023/03/24 11:29:30;;;;;;;7.70;1.73;;;;;;;13.33;67.59;100300.03;5073908;28;20024;-45
2023/03/24 11:32:10;;;;;;;8.05;2.00;;;;;;;13.24;68.55;100305.13;5075287;28;20036;-47
2023/03/24 11:34:45;;;;;;;10.93;1.95;;;;;;;13.13;69.83;100305.88;5070615;28;20139;-48
2023/03/24 11:37:18;;;;;;;8.23;2.10;;;;;;;13.20;70.97;100304.19;5070806;28;20029;-46
2023/03/24 11:40:15;;;;;;;11.57;2.38;;;;;;;13.32;71.80;100300.88;5072721;28;20066;-45